sensor_id;sensor_type;location;lat;lon;timestamp;P1;durP1;ratioP1;P2;durP2;ratioP2
21087;SDS011;10702;51.516;9.944;2022-12-29T00:01:36;3.67;;;1.80;;
21087;SDS011;10702;51.516;9.944;2022-12-29T00:04:04;4.03;;;1.83;;
21087;SDS011;10702;51.516;9.944;2022-12-29T00:06:39;4.20;;;1.70;;
21087;SDS011;10702;51.516;9.944;2022-12-29T00:09:07;2.37;;;1.40;;
21087;SDS011;10702;51.516;9.944;2022-12-29T00:11:35;5.20;;;2.20;;
21087;SDS011;10702;51.516;9.944;2022-12-29T00:14:03;3.00;;;1.60;;
21087;SDS011;10702;51.516;9.944;2022-12-29T00:16:51;3.90;;;1.90;;
21087;SDS011;10702;51.516;9.944;2022-12-29T00:19:18;3.03;;;1.70;;
21087;SDS011;10702;51.516;9.944;2022-12-29T00:22:04;2.90;;;1.53;;
21087;SDS011;10702;51.516;9.944;2022-12-29T00:24:49;3.27;;;1.60;;
21087;SDS011;10702;51.516;9.944;2022-12-29T00:27:35;3.13;;;1.73;;
21087;SDS011;10702;51.516;9.944;2022-12-29T00:30:21;2.57;;;1.50;;
21087;SDS011;10702;51.516;9.944;2022-12-29T00:33:10;2.50;;;1.70;;
21087;SDS011;10702;51.516;9.944;2022-12-29T00:35:55;3.47;;;2.00;;
21087;SDS011;10702;51.516;9.944;2022-12-29T00:38:24;3.03;;;1.70;;
21087;SDS011;10702;51.516;9.944;2022-12-29T00:41:09;2.90;;;1.90;;
21087;SDS011;10702;51.516;9.944;2022-12-29T00:43:55;3.50;;;1.60;;
21087;SDS011;10702;51.516;9.944;2022-12-29T00:46:32;2.70;;;1.70;;
21087;SDS011;10702;51.516;9.944;2022-12-29T00:49:00;3.70;;;2.03;;
21087;SDS011;10702;51.516;9.944;2022-12-29T00:51:45;3.97;;;1.90;;
21087;SDS011;10702;51.516;9.944;2022-12-29T00:54:13;3.87;;;1.87;;
21087;SDS011;10702;51.516;9.944;2022-12-29T00:56:40;3.13;;;1.90;;
21087;SDS011;10702;51.516;9.944;2022-12-29T00:59:09;4.00;;;1.87;;
21087;SDS011;10702;51.516;9.944;2022-12-29T01:01:37;4.67;;;2.10;;
21087;SDS011;10702;51.516;9.944;2022-12-29T01:04:06;3.67;;;1.87;;
21087;SDS011;10702;51.516;9.944;2022-12-29T01:06:33;3.43;;;2.03;;
21087;SDS011;10702;51.516;9.944;2022-12-29T01:09:02;4.17;;;1.77;;
21087;SDS011;10702;51.516;9.944;2022-12-29T01:11:47;2.90;;;1.80;;
21087;SDS011;10702;51.516;9.944;2022-12-29T01:14:16;5.37;;;2.00;;
21087;SDS011;10702;51.516;9.944;2022-12-29T01:16:44;3.43;;;2.20;;
21087;SDS011;10702;51.516;9.944;2022-12-29T01:19:11;6.10;;;2.20;;
21087;SDS011;10702;51.516;9.944;2022-12-29T01:21:39;3.30;;;2.07;;
21087;SDS011;10702;51.516;9.944;2022-12-29T01:24:07;3.50;;;2.03;;
21087;SDS011;10702;51.516;9.944;2022-12-29T01:26:34;2.70;;;2.00;;
21087;SDS011;10702;51.516;9.944;2022-12-29T01:29:01;4.10;;;2.30;;
21087;SDS011;10702;51.516;9.944;2022-12-29T01:31:30;4.17;;;1.73;;
21087;SDS011;10702;51.516;9.944;2022-12-29T01:33:57;3.40;;;1.90;;
21087;SDS011;10702;51.516;9.944;2022-12-29T01:36:25;3.83;;;2.10;;
21087;SDS011;10702;51.516;9.944;2022-12-29T01:38:52;3.93;;;1.90;;
21087;SDS011;10702;51.516;9.944;2022-12-29T01:41:20;3.93;;;2.10;;
21087;SDS011;10702;51.516;9.944;2022-12-29T01:43:48;3.20;;;1.90;;
21087;SDS011;10702;51.516;9.944;2022-12-29T01:46:19;3.03;;;2.00;;
21087;SDS011;10702;51.516;9.944;2022-12-29T01:48:49;2.90;;;2.00;;
21087;SDS011;10702;51.516;9.944;2022-12-29T01:51:17;4.67;;;2.20;;
21087;SDS011;10702;51.516;9.944;2022-12-29T01:53:44;2.87;;;1.90;;
21087;SDS011;10702;51.516;9.944;2022-12-29T01:56:12;3.00;;;2.10;;
21087;SDS011;10702;51.516;9.944;2022-12-29T01:58:42;3.90;;;1.80;;
21087;SDS011;10702;51.516;9.944;2022-12-29T02:01:11;3.60;;;1.83;;
21087;SDS011;10702;51.516;9.944;2022-12-29T02:03:39;2.87;;;1.80;;
21087;SDS011;10702;51.516;9.944;2022-12-29T02:06:09;2.73;;;2.07;;
21087;SDS011;10702;51.516;9.944;2022-12-29T02:08:39;3.70;;;1.70;;
21087;SDS011;10702;51.516;9.944;2022-12-29T02:11:07;4.17;;;2.23;;
21087;SDS011;10702;51.516;9.944;2022-12-29T02:13:34;3.67;;;1.70;;
21087;SDS011;10702;51.516;9.944;2022-12-29T02:16:05;3.23;;;1.63;;
21087;SDS011;10702;51.516;9.944;2022-12-29T02:18:37;3.30;;;1.73;;
21087;SDS011;10702;51.516;9.944;2022-12-29T02:23:54;2.43;;;1.53;;
21087;SDS011;10702;51.516;9.944;2022-12-29T02:26:29;2.43;;;1.87;;
21087;SDS011;10702;51.516;9.944;2022-12-29T02:31:50;2.70;;;1.63;;
21087;SDS011;10702;51.516;9.944;2022-12-29T02:34:22;3.00;;;1.77;;
21087;SDS011;10702;51.516;9.944;2022-12-29T02:36:53;2.40;;;1.53;;
21087;SDS011;10702;51.516;9.944;2022-12-29T02:39:23;2.20;;;1.60;;
21087;SDS011;10702;51.516;9.944;2022-12-29T02:41:55;2.07;;;1.50;;
21087;SDS011;10702;51.516;9.944;2022-12-29T02:44:26;5.03;;;1.50;;
21087;SDS011;10702;51.516;9.944;2022-12-29T02:46:57;1.87;;;1.50;;
21087;SDS011;10702;51.516;9.944;2022-12-29T02:49:27;2.37;;;1.50;;
21087;SDS011;10702;51.516;9.944;2022-12-29T02:52:00;2.67;;;1.47;;
21087;SDS011;10702;51.516;9.944;2022-12-29T02:54:28;3.10;;;1.60;;
21087;SDS011;10702;51.516;9.944;2022-12-29T02:57:11;3.13;;;1.40;;
21087;SDS011;10702;51.516;9.944;2022-12-29T02:59:37;3.20;;;1.50;;
21087;SDS011;10702;51.516;9.944;2022-12-29T03:02:10;4.13;;;1.80;;
21087;SDS011;10702;51.516;9.944;2022-12-29T03:04:47;2.13;;;1.60;;
21087;SDS011;10702;51.516;9.944;2022-12-29T03:07:20;2.93;;;1.60;;
21087;SDS011;10702;51.516;9.944;2022-12-29T03:09:52;2.43;;;1.50;;
21087;SDS011;10702;51.516;9.944;2022-12-29T03:12:23;3.63;;;1.60;;
21087;SDS011;10702;51.516;9.944;2022-12-29T03:15:07;1.90;;;1.50;;
21087;SDS011;10702;51.516;9.944;2022-12-29T03:17:57;2.67;;;1.70;;
21087;SDS011;10702;51.516;9.944;2022-12-29T03:20:26;2.37;;;1.40;;
21087;SDS011;10702;51.516;9.944;2022-12-29T03:22:58;1.60;;;1.40;;
21087;SDS011;10702;51.516;9.944;2022-12-29T03:25:28;4.43;;;1.30;;
21087;SDS011;10702;51.516;9.944;2022-12-29T03:27:57;2.03;;;1.33;;
21087;SDS011;10702;51.516;9.944;2022-12-29T03:30:25;2.30;;;1.43;;
21087;SDS011;10702;51.516;9.944;2022-12-29T03:32:54;2.00;;;1.20;;
21087;SDS011;10702;51.516;9.944;2022-12-29T03:35:25;2.20;;;1.40;;
21087;SDS011;10702;51.516;9.944;2022-12-29T03:37:53;2.70;;;1.30;;
21087;SDS011;10702;51.516;9.944;2022-12-29T03:40:22;2.60;;;1.20;;
21087;SDS011;10702;51.516;9.944;2022-12-29T03:42:50;5.00;;;1.30;;
21087;SDS011;10702;51.516;9.944;2022-12-29T03:45:18;3.07;;;1.30;;
21087;SDS011;10702;51.516;9.944;2022-12-29T03:47:46;1.83;;;1.00;;
21087;SDS011;10702;51.516;9.944;2022-12-29T03:50:13;1.77;;;1.20;;
21087;SDS011;10702;51.516;9.944;2022-12-29T03:52:44;2.60;;;1.33;;
21087;SDS011;10702;51.516;9.944;2022-12-29T03:55:12;2.03;;;1.20;;
21087;SDS011;10702;51.516;9.944;2022-12-29T03:57:39;4.23;;;1.00;;
21087;SDS011;10702;51.516;9.944;2022-12-29T04:00:07;2.17;;;1.10;;
21087;SDS011;10702;51.516;9.944;2022-12-29T04:02:35;3.30;;;1.10;;
21087;SDS011;10702;51.516;9.944;2022-12-29T04:05:03;2.27;;;0.97;;
21087;SDS011;10702;51.516;9.944;2022-12-29T04:07:31;1.90;;;1.00;;
21087;SDS011;10702;51.516;9.944;2022-12-29T04:09:59;2.03;;;1.10;;
21087;SDS011;10702;51.516;9.944;2022-12-29T04:12:27;2.00;;;1.10;;
21087;SDS011;10702;51.516;9.944;2022-12-29T04:14:54;1.93;;;0.80;;
21087;SDS011;10702;51.516;9.944;2022-12-29T04:17:21;1.40;;;0.97;;
21087;SDS011;10702;51.516;9.944;2022-12-29T04:19:49;2.10;;;0.90;;
21087;SDS011;10702;51.516;9.944;2022-12-29T04:22:16;2.50;;;1.10;;
21087;SDS011;10702;51.516;9.944;2022-12-29T04:24:43;1.27;;;0.90;;
21087;SDS011;10702;51.516;9.944;2022-12-29T04:27:12;2.03;;;1.00;;
21087;SDS011;10702;51.516;9.944;2022-12-29T04:29:39;2.83;;;1.13;;
21087;SDS011;10702;51.516;9.944;2022-12-29T04:32:07;2.17;;;1.10;;
21087;SDS011;10702;51.516;9.944;2022-12-29T04:34:34;1.30;;;0.90;;
21087;SDS011;10702;51.516;9.944;2022-12-29T04:37:01;1.63;;;1.20;;
21087;SDS011;10702;51.516;9.944;2022-12-29T04:39:29;1.70;;;1.00;;
21087;SDS011;10702;51.516;9.944;2022-12-29T04:41:56;1.13;;;1.03;;
21087;SDS011;10702;51.516;9.944;2022-12-29T04:44:25;1.83;;;1.00;;
21087;SDS011;10702;51.516;9.944;2022-12-29T04:46:52;1.40;;;1.00;;
21087;SDS011;10702;51.516;9.944;2022-12-29T04:49:19;1.40;;;0.93;;
21087;SDS011;10702;51.516;9.944;2022-12-29T04:51:47;1.47;;;0.93;;
21087;SDS011;10702;51.516;9.944;2022-12-29T04:54:14;3.10;;;0.87;;
21087;SDS011;10702;51.516;9.944;2022-12-29T04:56:41;1.70;;;1.00;;
21087;SDS011;10702;51.516;9.944;2022-12-29T04:59:09;1.97;;;0.80;;
21087;SDS011;10702;51.516;9.944;2022-12-29T05:01:37;1.20;;;0.80;;
21087;SDS011;10702;51.516;9.944;2022-12-29T05:04:05;1.33;;;0.90;;
21087;SDS011;10702;51.516;9.944;2022-12-29T05:06:32;2.37;;;1.00;;
21087;SDS011;10702;51.516;9.944;2022-12-29T05:09:00;2.40;;;1.00;;
21087;SDS011;10702;51.516;9.944;2022-12-29T05:11:27;1.10;;;0.80;;
21087;SDS011;10702;51.516;9.944;2022-12-29T05:13:54;1.20;;;0.90;;
21087;SDS011;10702;51.516;9.944;2022-12-29T05:16:22;1.30;;;0.80;;
21087;SDS011;10702;51.516;9.944;2022-12-29T05:18:50;0.93;;;0.70;;
21087;SDS011;10702;51.516;9.944;2022-12-29T05:21:18;1.60;;;1.00;;
21087;SDS011;10702;51.516;9.944;2022-12-29T05:23:45;1.10;;;0.80;;
21087;SDS011;10702;51.516;9.944;2022-12-29T05:26:12;1.10;;;0.80;;
21087;SDS011;10702;51.516;9.944;2022-12-29T05:28:40;1.10;;;0.80;;
21087;SDS011;10702;51.516;9.944;2022-12-29T05:31:07;2.83;;;0.80;;
21087;SDS011;10702;51.516;9.944;2022-12-29T05:33:35;1.30;;;0.70;;
21087;SDS011;10702;51.516;9.944;2022-12-29T05:36:05;1.37;;;0.70;;
21087;SDS011;10702;51.516;9.944;2022-12-29T05:38:32;1.27;;;0.77;;
21087;SDS011;10702;51.516;9.944;2022-12-29T05:41:00;1.30;;;0.80;;
21087;SDS011;10702;51.516;9.944;2022-12-29T05:43:27;1.03;;;0.73;;
21087;SDS011;10702;51.516;9.944;2022-12-29T05:45:54;2.00;;;0.90;;
21087;SDS011;10702;51.516;9.944;2022-12-29T05:48:22;1.57;;;0.80;;
21087;SDS011;10702;51.516;9.944;2022-12-29T05:50:50;1.37;;;0.80;;
21087;SDS011;10702;51.516;9.944;2022-12-29T05:53:18;2.63;;;0.70;;
21087;SDS011;10702;51.516;9.944;2022-12-29T05:55:46;1.73;;;0.73;;
21087;SDS011;10702;51.516;9.944;2022-12-29T05:58:14;1.40;;;0.87;;
21087;SDS011;10702;51.516;9.944;2022-12-29T06:00:42;1.53;;;0.93;;
21087;SDS011;10702;51.516;9.944;2022-12-29T06:03:09;2.80;;;0.90;;
21087;SDS011;10702;51.516;9.944;2022-12-29T06:05:37;0.80;;;0.70;;
21087;SDS011;10702;51.516;9.944;2022-12-29T06:08:05;1.60;;;0.80;;
21087;SDS011;10702;51.516;9.944;2022-12-29T06:10:33;1.13;;;0.83;;
21087;SDS011;10702;51.516;9.944;2022-12-29T06:13:01;3.67;;;0.90;;
21087;SDS011;10702;51.516;9.944;2022-12-29T06:15:29;1.50;;;0.80;;
21087;SDS011;10702;51.516;9.944;2022-12-29T06:17:57;0.90;;;0.60;;
21087;SDS011;10702;51.516;9.944;2022-12-29T06:20:24;3.57;;;0.60;;
21087;SDS011;10702;51.516;9.944;2022-12-29T06:22:52;0.90;;;0.60;;
21087;SDS011;10702;51.516;9.944;2022-12-29T06:25:19;0.93;;;0.63;;
21087;SDS011;10702;51.516;9.944;2022-12-29T06:27:48;2.13;;;0.63;;
21087;SDS011;10702;51.516;9.944;2022-12-29T06:30:15;0.80;;;0.70;;
21087;SDS011;10702;51.516;9.944;2022-12-29T06:32:43;1.07;;;0.77;;
21087;SDS011;10702;51.516;9.944;2022-12-29T06:35:10;1.27;;;0.80;;
21087;SDS011;10702;51.516;9.944;2022-12-29T06:37:38;1.00;;;0.60;;
21087;SDS011;10702;51.516;9.944;2022-12-29T06:40:05;0.83;;;0.60;;
21087;SDS011;10702;51.516;9.944;2022-12-29T06:42:33;1.53;;;0.80;;
21087;SDS011;10702;51.516;9.944;2022-12-29T06:45:02;1.43;;;1.00;;
21087;SDS011;10702;51.516;9.944;2022-12-29T06:47:29;1.10;;;0.80;;
21087;SDS011;10702;51.516;9.944;2022-12-29T06:49:57;0.90;;;0.60;;
21087;SDS011;10702;51.516;9.944;2022-12-29T06:52:24;2.87;;;0.80;;
21087;SDS011;10702;51.516;9.944;2022-12-29T06:54:51;2.80;;;0.70;;
21087;SDS011;10702;51.516;9.944;2022-12-29T06:57:19;0.93;;;0.80;;
21087;SDS011;10702;51.516;9.944;2022-12-29T06:59:46;1.40;;;0.90;;
21087;SDS011;10702;51.516;9.944;2022-12-29T07:02:15;1.17;;;0.60;;
21087;SDS011;10702;51.516;9.944;2022-12-29T07:04:44;1.20;;;0.67;;
21087;SDS011;10702;51.516;9.944;2022-12-29T07:07:12;1.73;;;0.90;;
21087;SDS011;10702;51.516;9.944;2022-12-29T07:09:39;0.90;;;0.80;;
21087;SDS011;10702;51.516;9.944;2022-12-29T07:12:06;0.83;;;0.63;;
21087;SDS011;10702;51.516;9.944;2022-12-29T07:14:34;1.17;;;0.90;;
21087;SDS011;10702;51.516;9.944;2022-12-29T07:17:08;2.60;;;0.80;;
21087;SDS011;10702;51.516;9.944;2022-12-29T07:19:37;1.13;;;0.90;;
21087;SDS011;10702;51.516;9.944;2022-12-29T07:22:04;1.40;;;0.90;;
21087;SDS011;10702;51.516;9.944;2022-12-29T07:24:32;1.47;;;0.90;;
21087;SDS011;10702;51.516;9.944;2022-12-29T07:26:59;3.07;;;1.10;;
21087;SDS011;10702;51.516;9.944;2022-12-29T07:29:27;2.63;;;1.07;;
21087;SDS011;10702;51.516;9.944;2022-12-29T07:31:54;1.57;;;0.80;;
21087;SDS011;10702;51.516;9.944;2022-12-29T07:34:22;1.50;;;1.07;;
21087;SDS011;10702;51.516;9.944;2022-12-29T07:36:50;1.30;;;0.80;;
21087;SDS011;10702;51.516;9.944;2022-12-29T07:39:18;1.70;;;1.10;;
21087;SDS011;10702;51.516;9.944;2022-12-29T07:41:45;3.10;;;1.00;;
21087;SDS011;10702;51.516;9.944;2022-12-29T07:44:13;1.80;;;1.00;;
21087;SDS011;10702;51.516;9.944;2022-12-29T07:46:40;2.87;;;1.20;;
21087;SDS011;10702;51.516;9.944;2022-12-29T07:49:21;1.77;;;1.13;;
21087;SDS011;10702;51.516;9.944;2022-12-29T07:51:50;1.57;;;1.10;;
21087;SDS011;10702;51.516;9.944;2022-12-29T07:54:18;3.43;;;1.47;;
21087;SDS011;10702;51.516;9.944;2022-12-29T07:56:45;4.40;;;1.63;;
21087;SDS011;10702;51.516;9.944;2022-12-29T07:59:13;2.83;;;1.40;;
21087;SDS011;10702;51.516;9.944;2022-12-29T08:01:40;2.23;;;1.30;;
21087;SDS011;10702;51.516;9.944;2022-12-29T08:04:08;1.87;;;1.10;;
21087;SDS011;10702;51.516;9.944;2022-12-29T08:06:35;2.77;;;1.70;;
21087;SDS011;10702;51.516;9.944;2022-12-29T08:09:05;2.63;;;1.60;;
21087;SDS011;10702;51.516;9.944;2022-12-29T08:11:41;1.53;;;1.20;;
21087;SDS011;10702;51.516;9.944;2022-12-29T08:14:09;2.27;;;1.37;;
21087;SDS011;10702;51.516;9.944;2022-12-29T08:16:37;2.43;;;1.27;;
21087;SDS011;10702;51.516;9.944;2022-12-29T08:19:04;2.50;;;1.37;;
21087;SDS011;10702;51.516;9.944;2022-12-29T08:21:32;1.80;;;1.30;;
21087;SDS011;10702;51.516;9.944;2022-12-29T08:23:59;2.93;;;1.10;;
21087;SDS011;10702;51.516;9.944;2022-12-29T08:26:28;2.70;;;1.20;;
21087;SDS011;10702;51.516;9.944;2022-12-29T08:28:55;1.97;;;1.20;;
21087;SDS011;10702;51.516;9.944;2022-12-29T08:31:22;3.30;;;1.43;;
21087;SDS011;10702;51.516;9.944;2022-12-29T08:33:50;1.73;;;1.30;;
21087;SDS011;10702;51.516;9.944;2022-12-29T08:36:18;1.70;;;1.07;;
21087;SDS011;10702;51.516;9.944;2022-12-29T08:38:45;2.07;;;1.03;;
21087;SDS011;10702;51.516;9.944;2022-12-29T08:41:13;1.40;;;1.03;;
21087;SDS011;10702;51.516;9.944;2022-12-29T08:43:41;1.83;;;1.10;;
21087;SDS011;10702;51.516;9.944;2022-12-29T08:46:12;3.47;;;1.47;;
21087;SDS011;10702;51.516;9.944;2022-12-29T08:48:39;1.47;;;1.10;;
21087;SDS011;10702;51.516;9.944;2022-12-29T08:51:07;2.50;;;1.23;;
21087;SDS011;10702;51.516;9.944;2022-12-29T08:53:34;1.50;;;1.03;;
21087;SDS011;10702;51.516;9.944;2022-12-29T08:56:02;2.47;;;1.10;;
21087;SDS011;10702;51.516;9.944;2022-12-29T08:58:31;2.33;;;1.20;;
21087;SDS011;10702;51.516;9.944;2022-12-29T09:01:00;2.90;;;1.00;;
21087;SDS011;10702;51.516;9.944;2022-12-29T09:03:27;2.10;;;1.07;;
21087;SDS011;10702;51.516;9.944;2022-12-29T09:06:15;2.43;;;1.20;;
21087;SDS011;10702;51.516;9.944;2022-12-29T09:08:42;2.40;;;1.00;;
21087;SDS011;10702;51.516;9.944;2022-12-29T09:11:10;1.63;;;0.73;;
21087;SDS011;10702;51.516;9.944;2022-12-29T09:13:38;1.83;;;0.40;;
21087;SDS011;10702;51.516;9.944;2022-12-29T09:16:07;3.60;;;0.60;;
21087;SDS011;10702;51.516;9.944;2022-12-29T09:18:34;2.40;;;0.60;;
21087;SDS011;10702;51.516;9.944;2022-12-29T09:21:02;1.97;;;0.50;;
21087;SDS011;10702;51.516;9.944;2022-12-29T09:23:31;0.97;;;0.30;;
21087;SDS011;10702;51.516;9.944;2022-12-29T09:25:58;0.57;;;0.40;;
21087;SDS011;10702;51.516;9.944;2022-12-29T09:28:26;1.33;;;0.50;;
21087;SDS011;10702;51.516;9.944;2022-12-29T09:30:55;2.27;;;0.57;;
21087;SDS011;10702;51.516;9.944;2022-12-29T09:33:24;0.50;;;0.30;;
21087;SDS011;10702;51.516;9.944;2022-12-29T09:35:52;1.63;;;0.47;;
21087;SDS011;10702;51.516;9.944;2022-12-29T09:38:20;0.97;;;0.47;;
21087;SDS011;10702;51.516;9.944;2022-12-29T09:40:49;0.70;;;0.40;;
21087;SDS011;10702;51.516;9.944;2022-12-29T09:43:24;0.70;;;0.40;;
21087;SDS011;10702;51.516;9.944;2022-12-29T09:45:55;0.70;;;0.40;;
21087;SDS011;10702;51.516;9.944;2022-12-29T09:48:27;0.67;;;0.50;;
21087;SDS011;10702;51.516;9.944;2022-12-29T09:50:57;1.90;;;0.70;;
21087;SDS011;10702;51.516;9.944;2022-12-29T09:53:25;0.70;;;0.47;;
21087;SDS011;10702;51.516;9.944;2022-12-29T09:55:55;2.03;;;0.90;;
21087;SDS011;10702;51.516;9.944;2022-12-29T09:58:25;0.70;;;0.60;;
21087;SDS011;10702;51.516;9.944;2022-12-29T10:00:56;1.23;;;0.50;;
21087;SDS011;10702;51.516;9.944;2022-12-29T10:03:27;0.50;;;0.40;;
21087;SDS011;10702;51.516;9.944;2022-12-29T10:06:01;0.33;;;0.30;;
21087;SDS011;10702;51.516;9.944;2022-12-29T10:08:33;1.53;;;0.50;;
21087;SDS011;10702;51.516;9.944;2022-12-29T10:11:06;0.70;;;0.50;;
21087;SDS011;10702;51.516;9.944;2022-12-29T10:13:40;1.17;;;0.70;;
21087;SDS011;10702;51.516;9.944;2022-12-29T10:16:11;1.10;;;0.70;;
21087;SDS011;10702;51.516;9.944;2022-12-29T10:18:51;2.20;;;0.70;;
21087;SDS011;10702;51.516;9.944;2022-12-29T10:21:24;0.97;;;0.70;;
21087;SDS011;10702;51.516;9.944;2022-12-29T10:23:54;2.90;;;0.80;;
21087;SDS011;10702;51.516;9.944;2022-12-29T10:26:22;2.53;;;0.60;;
21087;SDS011;10702;51.516;9.944;2022-12-29T10:28:52;1.17;;;0.63;;
21087;SDS011;10702;51.516;9.944;2022-12-29T10:31:21;3.00;;;1.80;;
21087;SDS011;10702;51.516;9.944;2022-12-29T10:33:51;4.23;;;2.07;;
21087;SDS011;10702;51.516;9.944;2022-12-29T10:36:20;4.53;;;1.60;;
21087;SDS011;10702;51.516;9.944;2022-12-29T10:38:54;1.93;;;1.20;;
21087;SDS011;10702;51.516;9.944;2022-12-29T10:41:27;3.33;;;1.93;;
21087;SDS011;10702;51.516;9.944;2022-12-29T10:43:56;3.93;;;2.27;;
21087;SDS011;10702;51.516;9.944;2022-12-29T10:46:25;1.93;;;1.27;;
21087;SDS011;10702;51.516;9.944;2022-12-29T10:48:54;2.03;;;1.20;;
21087;SDS011;10702;51.516;9.944;2022-12-29T10:51:22;2.23;;;1.40;;
21087;SDS011;10702;51.516;9.944;2022-12-29T10:53:51;2.73;;;1.30;;
21087;SDS011;10702;51.516;9.944;2022-12-29T10:56:21;2.47;;;1.07;;
21087;SDS011;10702;51.516;9.944;2022-12-29T10:58:52;1.23;;;0.70;;
21087;SDS011;10702;51.516;9.944;2022-12-29T11:01:21;1.80;;;0.80;;
21087;SDS011;10702;51.516;9.944;2022-12-29T11:03:54;2.70;;;0.63;;
21087;SDS011;10702;51.516;9.944;2022-12-29T11:06:26;2.67;;;0.80;;
21087;SDS011;10702;51.516;9.944;2022-12-29T11:08:56;2.63;;;1.00;;
21087;SDS011;10702;51.516;9.944;2022-12-29T11:11:24;1.67;;;0.80;;
21087;SDS011;10702;51.516;9.944;2022-12-29T11:13:57;1.77;;;0.70;;
21087;SDS011;10702;51.516;9.944;2022-12-29T11:16:29;1.70;;;0.80;;
21087;SDS011;10702;51.516;9.944;2022-12-29T11:18:59;2.30;;;0.77;;
21087;SDS011;10702;51.516;9.944;2022-12-29T11:21:30;2.97;;;0.80;;
21087;SDS011;10702;51.516;9.944;2022-12-29T11:23:58;1.33;;;0.70;;
21087;SDS011;10702;51.516;9.944;2022-12-29T11:26:26;1.40;;;0.60;;
21087;SDS011;10702;51.516;9.944;2022-12-29T11:29:11;2.40;;;0.70;;
21087;SDS011;10702;51.516;9.944;2022-12-29T11:31:44;2.50;;;0.90;;
21087;SDS011;10702;51.516;9.944;2022-12-29T11:34:17;1.13;;;0.70;;
21087;SDS011;10702;51.516;9.944;2022-12-29T11:36:46;3.53;;;0.80;;
21087;SDS011;10702;51.516;9.944;2022-12-29T11:39:23;2.93;;;0.70;;
21087;SDS011;10702;51.516;9.944;2022-12-29T11:41:52;1.33;;;0.70;;
21087;SDS011;10702;51.516;9.944;2022-12-29T11:44:19;1.57;;;0.90;;
21087;SDS011;10702;51.516;9.944;2022-12-29T11:46:48;1.47;;;0.70;;
21087;SDS011;10702;51.516;9.944;2022-12-29T11:49:20;2.90;;;0.70;;
21087;SDS011;10702;51.516;9.944;2022-12-29T11:51:48;1.77;;;0.60;;
21087;SDS011;10702;51.516;9.944;2022-12-29T11:54:17;1.97;;;0.60;;
21087;SDS011;10702;51.516;9.944;2022-12-29T11:56:46;4.03;;;1.00;;
21087;SDS011;10702;51.516;9.944;2022-12-29T11:59:34;2.07;;;0.50;;
21087;SDS011;10702;51.516;9.944;2022-12-29T12:02:11;1.53;;;0.83;;
21087;SDS011;10702;51.516;9.944;2022-12-29T12:04:42;1.20;;;0.60;;
21087;SDS011;10702;51.516;9.944;2022-12-29T12:07:10;2.47;;;0.90;;
21087;SDS011;10702;51.516;9.944;2022-12-29T12:09:40;2.37;;;0.90;;
21087;SDS011;10702;51.516;9.944;2022-12-29T12:12:10;1.90;;;0.87;;
21087;SDS011;10702;51.516;9.944;2022-12-29T12:14:45;1.63;;;0.70;;
21087;SDS011;10702;51.516;9.944;2022-12-29T12:17:14;2.03;;;0.80;;
21087;SDS011;10702;51.516;9.944;2022-12-29T12:19:45;1.33;;;0.80;;
21087;SDS011;10702;51.516;9.944;2022-12-29T12:22:16;1.70;;;0.80;;
21087;SDS011;10702;51.516;9.944;2022-12-29T12:24:47;2.03;;;0.80;;
21087;SDS011;10702;51.516;9.944;2022-12-29T12:27:17;2.53;;;1.00;;
21087;SDS011;10702;51.516;9.944;2022-12-29T12:29:48;2.00;;;1.10;;
21087;SDS011;10702;51.516;9.944;2022-12-29T12:32:19;3.40;;;1.00;;
21087;SDS011;10702;51.516;9.944;2022-12-29T12:34:49;2.97;;;0.90;;
21087;SDS011;10702;51.516;9.944;2022-12-29T12:43:10;3.63;;;1.10;;
21087;SDS011;10702;51.516;9.944;2022-12-29T12:45:43;3.67;;;1.30;;
21087;SDS011;10702;51.516;9.944;2022-12-29T12:48:17;1.97;;;1.00;;
21087;SDS011;10702;51.516;9.944;2022-12-29T12:50:52;4.03;;;1.37;;
21087;SDS011;10702;51.516;9.944;2022-12-29T12:53:26;3.13;;;1.37;;
21087;SDS011;10702;51.516;9.944;2022-12-29T12:56:01;2.80;;;0.83;;
21087;SDS011;10702;51.516;9.944;2022-12-29T12:58:32;2.10;;;1.10;;
21087;SDS011;10702;51.516;9.944;2022-12-29T13:01:11;5.23;;;1.23;;
21087;SDS011;10702;51.516;9.944;2022-12-29T13:03:47;3.03;;;0.83;;
21087;SDS011;10702;51.516;9.944;2022-12-29T13:06:21;3.60;;;1.10;;
21087;SDS011;10702;51.516;9.944;2022-12-29T13:08:55;2.20;;;0.90;;
21087;SDS011;10702;51.516;9.944;2022-12-29T13:11:27;3.80;;;1.00;;
21087;SDS011;10702;51.516;9.944;2022-12-29T13:14:02;1.30;;;0.70;;
21087;SDS011;10702;51.516;9.944;2022-12-29T13:16:32;3.53;;;0.60;;
21087;SDS011;10702;51.516;9.944;2022-12-29T13:19:03;5.00;;;1.27;;
21087;SDS011;10702;51.516;9.944;2022-12-29T13:21:37;2.03;;;0.60;;
21087;SDS011;10702;51.516;9.944;2022-12-29T13:24:09;2.97;;;0.77;;
21087;SDS011;10702;51.516;9.944;2022-12-29T13:26:41;2.00;;;0.53;;
21087;SDS011;10702;51.516;9.944;2022-12-29T13:29:12;3.10;;;0.60;;
21087;SDS011;10702;51.516;9.944;2022-12-29T13:31:45;2.65;;;0.60;;
21087;SDS011;10702;51.516;9.944;2022-12-29T13:34:16;2.80;;;0.70;;
21087;SDS011;10702;51.516;9.944;2022-12-29T13:36:47;3.93;;;1.10;;
21087;SDS011;10702;51.516;9.944;2022-12-29T13:39:17;2.03;;;0.80;;
21087;SDS011;10702;51.516;9.944;2022-12-29T13:41:48;2.60;;;1.20;;
21087;SDS011;10702;51.516;9.944;2022-12-29T13:44:17;2.57;;;1.10;;
21087;SDS011;10702;51.516;9.944;2022-12-29T13:46:45;2.27;;;0.80;;
21087;SDS011;10702;51.516;9.944;2022-12-29T13:49:13;1.90;;;0.80;;
21087;SDS011;10702;51.516;9.944;2022-12-29T13:51:42;1.90;;;1.00;;
21087;SDS011;10702;51.516;9.944;2022-12-29T13:54:17;1.73;;;0.87;;
21087;SDS011;10702;51.516;9.944;2022-12-29T13:56:47;4.63;;;1.27;;
21087;SDS011;10702;51.516;9.944;2022-12-29T13:59:17;3.30;;;0.60;;
21087;SDS011;10702;51.516;9.944;2022-12-29T14:01:48;2.73;;;1.10;;
21087;SDS011;10702;51.516;9.944;2022-12-29T14:04:21;5.67;;;1.50;;
21087;SDS011;10702;51.516;9.944;2022-12-29T14:06:57;3.27;;;1.70;;
21087;SDS011;10702;51.516;9.944;2022-12-29T14:09:41;3.37;;;1.20;;
21087;SDS011;10702;51.516;9.944;2022-12-29T14:12:18;4.07;;;1.10;;
21087;SDS011;10702;51.516;9.944;2022-12-29T14:14:46;2.47;;;0.80;;
21087;SDS011;10702;51.516;9.944;2022-12-29T14:17:16;1.77;;;0.90;;
21087;SDS011;10702;51.516;9.944;2022-12-29T14:19:45;2.87;;;1.00;;
21087;SDS011;10702;51.516;9.944;2022-12-29T14:22:13;2.27;;;1.00;;
21087;SDS011;10702;51.516;9.944;2022-12-29T14:24:59;1.93;;;0.73;;
21087;SDS011;10702;51.516;9.944;2022-12-29T14:33:02;1.23;;;0.70;;
21087;SDS011;10702;51.516;9.944;2022-12-29T14:35:39;3.13;;;0.90;;
21087;SDS011;10702;51.516;9.944;2022-12-29T14:38:12;2.70;;;1.00;;
21087;SDS011;10702;51.516;9.944;2022-12-29T14:40:43;3.10;;;1.10;;
21087;SDS011;10702;51.516;9.944;2022-12-29T14:43:14;3.73;;;1.00;;
21087;SDS011;10702;51.516;9.944;2022-12-29T14:45:48;2.27;;;1.03;;
21087;SDS011;10702;51.516;9.944;2022-12-29T14:48:22;2.33;;;0.70;;
21087;SDS011;10702;51.516;9.944;2022-12-29T14:50:55;5.80;;;1.40;;
21087;SDS011;10702;51.516;9.944;2022-12-29T14:53:42;2.87;;;1.00;;
21087;SDS011;10702;51.516;9.944;2022-12-29T14:56:11;3.97;;;1.00;;
21087;SDS011;10702;51.516;9.944;2022-12-29T14:58:42;2.23;;;1.10;;
21087;SDS011;10702;51.516;9.944;2022-12-29T15:01:15;2.93;;;0.97;;
21087;SDS011;10702;51.516;9.944;2022-12-29T15:03:45;4.83;;;2.10;;
21087;SDS011;10702;51.516;9.944;2022-12-29T15:06:13;4.27;;;1.40;;
21087;SDS011;10702;51.516;9.944;2022-12-29T15:08:46;4.87;;;1.80;;
21087;SDS011;10702;51.516;9.944;2022-12-29T15:11:17;3.10;;;1.50;;
21087;SDS011;10702;51.516;9.944;2022-12-29T15:13:45;2.47;;;0.97;;
21087;SDS011;10702;51.516;9.944;2022-12-29T15:16:22;2.37;;;1.00;;
21087;SDS011;10702;51.516;9.944;2022-12-29T15:18:50;3.70;;;1.20;;
21087;SDS011;10702;51.516;9.944;2022-12-29T15:21:17;4.40;;;1.30;;
21087;SDS011;10702;51.516;9.944;2022-12-29T15:23:46;2.90;;;1.20;;